createdAt,value
2018-04-14T00:03:01.934Z,37.77
2018-04-14T00:06:06.010Z,41.77
2018-04-14T00:09:09.337Z,42.03
2018-04-14T00:12:13.405Z,37.67
2018-04-14T00:15:16.720Z,43.73
2018-04-14T00:18:20.037Z,41.50
2018-04-14T00:21:23.480Z,37.57
2018-04-14T00:24:26.821Z,42.90
2018-04-14T00:27:30.125Z,36.63
2018-04-14T00:30:33.461Z,40.23
2018-04-14T00:33:36.765Z,39.87
2018-04-14T00:36:40.082Z,42.77
2018-04-14T00:39:43.391Z,34.33
2018-04-14T00:42:46.733Z,35.27
2018-04-14T00:45:50.034Z,38.47
2018-04-14T00:48:53.395Z,42.57
2018-04-14T00:51:56.689Z,41.93
2018-04-14T00:54:59.997Z,38.20
2018-04-14T00:58:04.076Z,36.47
2018-04-14T01:01:07.377Z,36.40
2018-04-14T01:04:10.695Z,38.97
2018-04-14T01:07:13.988Z,35.57
2018-04-14T01:10:17.304Z,35.50
2018-04-14T01:13:21.373Z,38.90
2018-04-14T01:16:24.701Z,45.10
2018-04-14T01:19:28.009Z,41.63
2018-04-14T01:22:32.101Z,38.43
2018-04-14T01:25:35.424Z,43.37
2018-04-14T01:28:39.492Z,49.77
2018-04-14T01:31:42.809Z,43.30
2018-04-14T01:34:46.117Z,45.57
2018-04-14T01:37:49.433Z,46.70
2018-04-14T01:40:53.497Z,47.30
2018-04-14T01:43:56.817Z,50.23
2018-04-14T01:47:00.125Z,48.57
2018-04-14T01:50:03.460Z,55.50
2018-04-14T01:53:06.756Z,44.43
2018-04-14T01:56:10.086Z,50.37
2018-04-14T01:59:13.382Z,55.43
2018-04-14T02:02:16.709Z,45.50
2018-04-14T02:05:20.776Z,47.13
2018-04-14T02:08:24.088Z,41.73
2018-04-14T02:11:27.411Z,44.67
2018-04-14T02:14:30.705Z,52.03
2018-04-14T02:17:34.021Z,45.83
2018-04-14T02:20:38.085Z,48.90
2018-04-14T02:23:41.398Z,43.13
2018-04-14T02:26:44.710Z,45.07
2018-04-14T02:29:48.029Z,50.73
2018-04-14T02:32:51.332Z,46.93
2018-04-14T02:35:54.652Z,44.87
2018-04-14T02:38:57.966Z,50.50
2018-04-14T02:42:01.274Z,47.17
2018-04-14T02:45:04.606Z,45.33
2018-04-14T02:48:08.678Z,52.33
2018-04-14T02:51:12.013Z,44.70
2018-04-14T02:54:16.069Z,46.10
2018-04-14T02:57:19.385Z,44.67
2018-04-14T03:00:22.685Z,47.43
2018-04-14T03:03:26.002Z,54.60
2018-04-14T03:06:29.318Z,49.60
2018-04-14T03:09:32.656Z,48.23
2018-04-14T03:12:35.994Z,46.03
2018-04-14T03:15:39.293Z,52.90
2018-04-14T03:18:42.608Z,48.87
2018-04-14T03:21:46.677Z,49.20
2018-04-14T03:24:50.002Z,49.50
2018-04-14T03:27:53.313Z,44.67
2018-04-14T03:30:57.394Z,45.53
2018-04-14T03:34:00.691Z,47.57
2018-04-14T03:37:04.040Z,40.53
2018-04-14T03:40:07.366Z,46.77
2018-04-14T03:43:10.661Z,47.07
2018-04-14T03:46:13.989Z,77.13
2018-04-14T03:49:17.289Z,144.77
2018-04-14T03:52:20.613Z,70.00
2018-04-14T03:55:23.918Z,53.37
2018-04-14T03:58:27.257Z,47.70
2018-04-14T04:01:30.563Z,54.80
2018-04-14T04:04:33.898Z,49.40
2018-04-14T04:07:37.208Z,53.63
2018-04-14T04:10:40.528Z,48.80
2018-04-14T04:13:43.824Z,50.23
2018-04-14T04:16:47.149Z,49.40
2018-04-14T04:20:08.169Z,51.07
2018-04-14T04:23:29.064Z,53.50
2018-04-14T04:26:32.364Z,51.60
2018-04-14T04:29:35.697Z,55.60
2018-04-14T04:32:39.848Z,55.43
2018-04-14T04:35:43.165Z,56.97
2018-04-14T04:38:46.477Z,61.07
2018-04-14T04:41:49.804Z,56.77
2018-04-14T04:44:53.130Z,57.57
2018-04-14T04:47:56.445Z,53.50
2018-04-14T04:50:59.764Z,57.27
2018-04-14T04:54:03.086Z,54.67
2018-04-14T04:57:06.409Z,58.87
2018-04-14T05:00:09.730Z,57.60
2018-04-14T05:03:13.029Z,59.40
2018-04-14T05:06:16.353Z,52.43
2018-04-14T05:09:20.421Z,55.70
2018-04-14T05:12:23.770Z,52.80
2018-04-14T05:15:27.848Z,60.30
2018-04-14T05:18:31.194Z,60.57
2018-04-14T05:21:35.261Z,58.47
2018-04-14T05:24:38.586Z,56.73
2018-04-14T05:27:41.932Z,58.00
2018-04-14T05:30:45.240Z,53.83
2018-04-14T05:33:48.562Z,58.83
2018-04-14T05:36:51.867Z,55.90
2018-04-14T05:39:55.341Z,62.00
2018-04-14T05:42:58.667Z,59.67
2018-04-14T05:46:01.974Z,58.07
2018-04-14T05:49:06.064Z,50.50
2018-04-14T05:52:09.366Z,56.23
2018-04-14T05:55:12.712Z,55.57
2018-04-14T05:58:16.014Z,57.70
2018-04-14T06:01:19.329Z,55.83
2018-04-14T06:04:22.633Z,58.00
2018-04-14T06:07:25.951Z,52.00
2018-04-14T06:10:29.261Z,58.83
2018-04-14T06:13:33.352Z,51.13
2018-04-14T06:16:36.679Z,59.30
2018-04-14T06:19:40.773Z,52.43
2018-04-14T06:22:44.068Z,55.93
2018-04-14T06:25:47.385Z,58.97
2018-04-14T06:28:51.472Z,62.50
2018-04-14T06:31:54.775Z,51.77
2018-04-14T06:34:58.874Z,50.37
2018-04-14T06:38:02.188Z,51.37
2018-04-14T06:41:05.508Z,54.43
2018-04-14T06:44:08.845Z,50.50
2018-04-14T06:47:12.137Z,53.13
2018-04-14T06:50:16.206Z,54.03
2018-04-14T06:53:20.981Z,58.63
2018-04-14T06:56:24.298Z,54.70
2018-04-14T06:59:27.601Z,55.37
2018-04-14T07:02:31.174Z,56.17
2018-04-14T07:05:34.477Z,59.03
2018-04-14T07:08:37.809Z,54.47
2018-04-14T07:11:41.152Z,54.90
2018-04-14T07:14:44.477Z,58.23
2018-04-14T07:17:47.794Z,63.13
2018-04-14T07:20:51.108Z,61.77
2018-04-14T07:23:55.193Z,63.50
2018-04-14T07:26:58.499Z,59.47
2018-04-14T07:30:01.822Z,55.53
2018-04-14T07:33:05.897Z,59.60
2018-04-14T07:36:09.215Z,58.73
2018-04-14T07:39:12.538Z,62.43
2018-04-14T07:42:16.625Z,61.57
2018-04-14T07:45:19.945Z,60.43
2018-04-14T07:48:24.018Z,54.13
2018-04-14T07:51:27.375Z,55.63
2018-04-14T07:54:30.716Z,53.00
2018-04-14T07:57:34.049Z,52.43
2018-04-14T08:00:37.366Z,59.23
2018-04-14T08:03:40.685Z,58.27
2018-04-14T08:06:43.994Z,63.53
2018-04-14T08:09:47.309Z,62.10
2018-04-14T08:12:50.626Z,59.30
2018-04-14T08:15:54.689Z,63.73
2018-04-14T08:18:58.004Z,68.27
2018-04-14T08:22:01.323Z,66.13
2018-04-14T08:25:04.629Z,76.60
2018-04-14T08:28:07.938Z,74.80
2018-04-14T08:31:12.045Z,64.63
2018-04-14T08:34:15.348Z,70.17
2018-04-14T08:37:19.441Z,69.33
2018-04-14T08:40:23.534Z,63.50
2018-04-14T08:43:26.845Z,62.07
2018-04-14T08:46:30.177Z,66.77
2018-04-14T08:49:33.485Z,67.87
2018-04-14T08:52:36.804Z,70.63
2018-04-14T08:55:40.105Z,75.97
2018-04-14T08:58:43.429Z,68.73
2018-04-14T09:01:46.753Z,107.80
2018-04-14T09:04:50.825Z,80.47
2018-04-14T09:07:54.145Z,74.47
2018-04-14T09:10:58.220Z,69.33
2018-04-14T09:14:01.537Z,73.87
2018-04-14T09:17:04.837Z,68.63
2018-04-14T09:20:08.201Z,72.53
2018-04-14T09:23:11.527Z,57.87
2018-04-14T09:26:14.837Z,65.70
2018-04-14T09:29:18.161Z,69.53
2018-04-14T09:32:21.470Z,68.80
2018-04-14T09:35:24.789Z,61.57
2018-04-14T09:38:28.105Z,57.27
2018-04-14T09:41:31.430Z,53.57
2018-04-14T09:44:35.519Z,56.83
2018-04-14T09:47:38.821Z,54.47
2018-04-14T09:50:42.145Z,55.83
2018-04-14T09:53:46.229Z,63.57
2018-04-14T09:56:49.549Z,58.90
2018-04-14T09:59:53.649Z,54.07
2018-04-14T10:03:00.990Z,57.93
2018-04-14T10:06:04.266Z,60.60
2018-04-14T10:09:07.578Z,56.43
2018-04-14T10:12:10.903Z,61.47
2018-04-14T10:15:14.210Z,57.20
2018-04-14T10:18:17.540Z,63.17
2018-04-14T10:21:21.618Z,58.97
2018-04-14T10:24:24.937Z,62.93
2018-04-14T10:27:28.263Z,59.90
2018-04-14T10:30:31.589Z,58.90
2018-04-14T10:33:34.917Z,64.37
2018-04-14T10:36:38.239Z,62.40
2018-04-14T10:39:42.361Z,57.67
2018-04-14T10:42:46.418Z,59.03
2018-04-14T10:45:49.744Z,66.23
2018-04-14T10:48:53.041Z,65.80
2018-04-14T10:51:56.362Z,63.97
2018-04-14T10:55:00.445Z,59.90
2018-04-14T10:58:03.769Z,60.20
2018-04-14T11:01:07.850Z,60.00
2018-04-14T11:04:11.170Z,51.63
2018-04-14T11:07:14.493Z,53.27
2018-04-14T11:10:17.813Z,67.00
2018-04-14T11:13:21.445Z,64.13
2018-04-14T11:16:25.425Z,63.57
2018-04-14T11:19:28.742Z,68.90
2018-04-14T11:22:32.048Z,63.47
2018-04-14T11:25:35.370Z,67.00
2018-04-14T11:28:38.714Z,69.43
2018-04-14T11:31:42.025Z,71.40
2018-04-14T11:34:45.353Z,69.07
2018-04-14T11:37:48.672Z,76.90
2018-04-14T11:40:52.745Z,81.60
2018-04-14T11:43:56.065Z,81.63
2018-04-14T11:46:59.367Z,83.13
2018-04-14T11:50:03.457Z,90.07
2018-04-14T11:53:06.785Z,81.93
2018-04-14T11:56:10.868Z,81.80
2018-04-14T11:59:14.217Z,94.00
2018-04-14T12:02:17.568Z,94.57
2018-04-14T12:05:20.861Z,95.30
2018-04-14T12:08:24.169Z,106.77
2018-04-14T12:11:27.494Z,99.60
2018-04-14T12:14:31.559Z,90.73
2018-04-14T12:17:34.886Z,86.10
2018-04-14T12:20:38.965Z,92.53
2018-04-14T12:23:42.293Z,108.23
2018-04-14T12:26:45.606Z,111.03
2018-04-14T12:29:48.936Z,117.23
2018-04-14T12:32:52.265Z,117.17
2018-04-14T12:35:55.690Z,96.77
2018-04-14T12:38:59.068Z,95.07
2018-04-14T12:42:02.381Z,101.93
2018-04-14T12:45:06.474Z,96.80
2018-04-14T12:48:09.798Z,92.10
2018-04-14T12:51:13.113Z,81.73
2018-04-14T12:54:16.433Z,89.07
2018-04-14T12:57:19.761Z,80.53
2018-04-14T13:00:23.089Z,70.97
2018-04-14T13:03:27.152Z,70.43
2018-04-14T13:06:30.492Z,75.27
2018-04-14T13:09:34.566Z,68.60
2018-04-14T13:12:37.901Z,68.53
2018-04-14T13:15:41.218Z,81.07
2018-04-14T13:18:44.534Z,65.50
2018-04-14T13:21:47.854Z,67.57
2018-04-14T13:24:51.182Z,67.50
2018-04-14T13:27:54.507Z,66.30
2018-04-14T13:30:57.800Z,69.43
2018-04-14T13:34:01.121Z,70.20
2018-04-14T13:37:04.437Z,69.77
2018-04-14T13:40:07.763Z,67.37
2018-04-14T13:43:11.102Z,61.83
2018-04-14T13:46:15.182Z,67.80
2018-04-14T13:49:19.265Z,66.93
2018-04-14T13:52:22.571Z,62.23
2018-04-14T13:55:25.892Z,71.67
2018-04-14T13:58:29.969Z,67.03
2018-04-14T14:01:33.301Z,67.90
2018-04-14T14:04:37.403Z,64.27
2018-04-14T14:07:40.701Z,57.20
2018-04-14T14:10:44.031Z,59.13
2018-04-14T14:13:47.387Z,58.63
2018-04-14T14:16:50.704Z,67.90
2018-04-14T14:19:54.776Z,66.40
2018-04-14T14:22:58.098Z,74.97
2018-04-14T14:26:01.404Z,80.97
2018-04-14T14:29:04.729Z,70.40
2018-04-14T14:32:08.049Z,61.43
2018-04-14T14:35:12.137Z,67.67
2018-04-14T14:38:15.461Z,72.63
2018-04-14T14:41:18.765Z,68.80
2018-04-14T14:44:22.084Z,58.40
2018-04-14T14:47:25.380Z,64.50
2018-04-14T14:50:28.704Z,62.40
2018-04-14T14:53:32.777Z,64.70
2018-04-14T14:56:36.094Z,71.37
2018-04-14T14:59:39.397Z,74.13
2018-04-14T15:02:42.757Z,65.40
2018-04-14T15:05:46.109Z,72.37
2018-04-14T15:08:50.189Z,67.87
2018-04-14T15:11:53.497Z,85.90
2018-04-14T15:14:56.845Z,103.83
2018-04-14T15:18:00.157Z,126.53
2018-04-14T15:21:03.487Z,115.63
2018-04-14T15:24:06.792Z,127.90
2018-04-14T15:27:10.116Z,104.23
2018-04-14T15:30:13.424Z,99.77
2018-04-14T15:33:16.745Z,80.80
2018-04-14T15:36:20.057Z,95.00
2018-04-14T15:39:23.393Z,80.23
2018-04-14T15:42:26.717Z,77.80
2018-04-14T15:45:30.045Z,75.40
2018-04-14T15:48:33.348Z,64.73
2018-04-14T15:51:36.668Z,65.37
2018-04-14T15:54:40.757Z,49.30
2018-04-14T15:57:44.087Z,64.63
2018-04-14T16:00:48.157Z,66.80
2018-04-14T16:03:51.533Z,74.03
2018-04-14T16:06:55.580Z,80.53
2018-04-14T16:09:58.912Z,80.00
2018-04-14T16:13:02.985Z,72.90
2018-04-14T16:16:06.313Z,64.20
2018-04-14T16:19:10.387Z,60.50
2018-04-14T16:22:13.713Z,72.57
2018-04-14T16:25:17.037Z,56.53
2018-04-14T16:28:21.121Z,54.67
2018-04-14T16:31:24.488Z,65.40
2018-04-14T16:34:27.769Z,58.50
2018-04-14T16:37:31.117Z,64.73
2018-04-14T16:40:34.421Z,53.63
2018-04-14T16:43:38.509Z,51.83
2018-04-14T16:46:41.827Z,63.13
2018-04-14T16:49:45.153Z,70.67
2018-04-14T16:52:48.449Z,59.40
2018-04-14T16:55:51.778Z,72.20
2018-04-14T16:58:55.093Z,59.03
2018-04-14T17:01:58.439Z,70.47
2018-04-14T17:05:01.778Z,76.67
2018-04-14T17:08:05.091Z,49.87
2018-04-14T17:11:08.409Z,64.07
2018-04-14T17:14:12.505Z,64.47
2018-04-14T17:17:15.832Z,73.93
2018-04-14T17:20:19.917Z,63.37
2018-04-14T17:23:23.262Z,144.57
2018-04-14T17:26:26.576Z,71.53
2018-04-14T17:29:29.900Z,54.73
2018-04-14T17:32:33.261Z,60.17
2018-04-14T17:35:37.309Z,69.70
2018-04-14T17:38:40.614Z,56.27
2018-04-14T17:41:43.945Z,68.17
2018-04-14T17:44:47.244Z,64.03
2018-04-14T17:47:50.569Z,54.60
2018-04-14T17:50:53.864Z,62.53
2018-04-14T17:53:57.183Z,78.23
2018-04-14T17:57:00.481Z,74.13
2018-04-14T18:00:03.817Z,67.03
2018-04-14T18:03:08.624Z,60.77
2018-04-14T18:06:11.948Z,66.53
2018-04-14T18:09:16.049Z,74.03
2018-04-14T18:12:20.116Z,60.27
2018-04-14T18:15:23.433Z,76.87
2018-04-14T18:18:26.742Z,63.57
2018-04-14T18:21:30.076Z,72.10
2018-04-14T18:24:33.393Z,80.13
2018-04-14T18:27:36.714Z,79.90
2018-04-14T18:30:40.045Z,76.17
2018-04-14T18:33:44.125Z,105.90
2018-04-14T18:36:47.472Z,127.00
2018-04-14T18:39:50.828Z,103.80
2018-04-14T18:42:54.133Z,106.90
2018-04-14T18:45:57.454Z,88.03
2018-04-14T18:49:01.553Z,108.40
2018-04-14T18:52:04.901Z,83.93
2018-04-14T18:55:08.217Z,103.73
2018-04-14T18:58:11.544Z,108.27
2018-04-14T19:01:15.645Z,88.47
2018-04-14T19:04:18.944Z,86.90
2018-04-14T19:07:22.275Z,93.53
2018-04-14T19:10:25.584Z,109.47
2018-04-14T19:13:28.904Z,98.57
2018-04-14T19:16:32.212Z,111.73
2018-04-14T19:19:35.533Z,126.77
2018-04-14T19:22:38.855Z,103.63
2018-04-14T19:25:42.944Z,101.77
2018-04-14T19:28:46.265Z,114.47
2018-04-14T19:31:50.334Z,101.20
2018-04-14T19:34:53.644Z,89.23
2018-04-14T19:37:57.020Z,107.33
2018-04-14T19:41:00.285Z,118.17
2018-04-14T19:44:03.617Z,131.83
2018-04-14T19:47:06.920Z,125.17
2018-04-14T19:50:10.264Z,125.63
2018-04-14T19:53:13.573Z,133.00
2018-04-14T19:56:16.896Z,144.80
2018-04-14T19:59:20.201Z,112.30
2018-04-14T20:02:23.537Z,127.33
2018-04-14T20:05:27.605Z,128.47
2018-04-14T20:08:30.921Z,132.70
2018-04-14T20:11:34.225Z,136.60
2018-04-14T20:14:37.541Z,126.53
2018-04-14T20:17:41.615Z,214.20
2018-04-14T20:20:44.953Z,123.10
2018-04-14T20:23:49.024Z,121.17
2018-04-14T20:26:52.350Z,133.73
2018-04-14T20:29:55.692Z,114.03
2018-04-14T20:32:59.005Z,133.10
2018-04-14T20:36:02.329Z,133.07
2018-04-14T20:39:06.404Z,163.20
2018-04-14T20:42:09.723Z,149.33
2018-04-14T20:45:13.049Z,125.00
2018-04-14T20:48:16.373Z,144.13
2018-04-14T20:51:19.702Z,156.80
2018-04-14T20:54:23.040Z,127.93
2018-04-14T20:57:26.351Z,124.23
2018-04-14T21:00:29.676Z,131.20
2018-04-14T21:03:32.985Z,110.70
2018-04-14T21:06:36.314Z,115.70
2018-04-14T21:09:39.617Z,114.13
2018-04-14T21:12:42.937Z,122.23
2018-04-14T21:15:47.025Z,107.43
2018-04-14T21:18:50.390Z,114.00
2018-04-14T21:21:53.682Z,117.33
2018-04-14T21:24:57.001Z,129.70
2018-04-14T21:28:00.324Z,123.50
2018-04-14T21:31:04.401Z,129.03
2018-04-14T21:34:07.741Z,146.20
2018-04-14T21:37:11.046Z,136.07
2018-04-14T21:40:14.361Z,138.27
2018-04-14T21:43:17.669Z,134.77
2018-04-14T21:46:20.984Z,137.27
2018-04-14T21:49:24.289Z,150.47
2018-04-14T21:52:27.601Z,149.00
2018-04-14T21:55:30.928Z,144.60
2018-04-14T21:58:35.001Z,140.40
2018-04-14T22:01:38.361Z,148.83
2018-04-14T22:04:41.669Z,147.20
2018-04-14T22:07:45.009Z,142.47
2018-04-14T22:10:48.304Z,144.23
2018-04-14T22:13:51.617Z,142.60
2018-04-14T22:16:55.689Z,120.43
2018-04-14T22:19:59.029Z,146.33
2018-04-14T22:23:03.104Z,141.10
2018-04-14T22:26:06.421Z,144.47
2018-04-14T22:29:09.728Z,148.10
2018-04-14T22:32:13.822Z,146.27
2018-04-14T22:35:17.127Z,128.73
2018-04-14T22:38:20.449Z,131.23
2018-04-14T22:41:24.538Z,125.90
2018-04-14T22:44:27.836Z,139.00
2018-04-14T22:47:31.169Z,134.93
2018-04-14T22:50:34.486Z,122.97
2018-04-14T22:53:37.809Z,137.97
2018-04-14T22:56:41.110Z,156.27
2018-04-14T22:59:44.434Z,168.93
2018-04-14T23:02:48.540Z,178.17
2018-04-14T23:05:51.845Z,171.60
2018-04-14T23:08:55.950Z,167.87
2018-04-14T23:11:59.255Z,192.43
2018-04-14T23:15:03.358Z,164.77
2018-04-14T23:18:06.662Z,201.90
2018-04-14T23:21:09.988Z,179.70
2018-04-14T23:24:13.290Z,206.97
2018-04-14T23:27:16.616Z,213.57
2018-04-14T23:30:19.911Z,177.93
2018-04-14T23:33:23.230Z,188.33
2018-04-14T23:36:26.533Z,198.60
2018-04-14T23:39:29.856Z,194.73
2018-04-14T23:42:33.157Z,186.03
2018-04-14T23:45:36.477Z,195.87
2018-04-14T23:48:40.549Z,200.30
2018-04-14T23:51:44.653Z,205.17
2018-04-14T23:54:48.725Z,208.40
2018-04-14T23:57:52.062Z,204.10
